createdAt,value
2022-09-20T00:01:18.708Z,11.90
2022-09-20T00:03:48.701Z,11.90
2022-09-20T00:06:20.265Z,11.90
2022-09-20T00:08:48.658Z,11.90
2022-09-20T00:11:18.455Z,11.90
2022-09-20T00:13:48.368Z,11.90
2022-09-20T00:16:18.127Z,12.00
2022-09-20T00:18:49.561Z,12.00
2022-09-20T00:21:20.522Z,12.00
2022-09-20T00:23:48.612Z,12.00
2022-09-20T00:26:17.435Z,12.10
2022-09-20T00:28:47.013Z,12.10
2022-09-20T00:31:15.987Z,12.10
2022-09-20T00:34:01.329Z,12.10
2022-09-20T00:36:31.061Z,12.10
2022-09-20T00:39:00.132Z,12.10
2022-09-20T00:41:28.847Z,12.10
2022-09-20T00:43:57.228Z,12.10
2022-09-20T00:46:29.743Z,12.10
2022-09-20T00:49:04.899Z,12.10
2022-09-20T00:51:39.028Z,12.10
2022-09-20T00:54:09.964Z,12.10
2022-09-20T00:56:43.400Z,12.00
2022-09-20T00:59:15.682Z,12.00
2022-09-20T01:01:44.881Z,12.00
2022-09-20T01:04:14.664Z,12.00
2022-09-20T01:06:45.893Z,12.00
2022-09-20T01:09:13.787Z,12.00
2022-09-20T01:11:42.602Z,12.00
2022-09-20T01:14:10.781Z,12.00
2022-09-20T01:16:39.333Z,11.90
2022-09-20T01:19:17.458Z,11.90
2022-09-20T01:21:48.045Z,11.90
2022-09-20T01:24:30.270Z,11.90
2022-09-20T01:27:12.177Z,11.90
2022-09-20T01:32:45.577Z,11.90
2022-09-20T01:35:14.409Z,11.90
2022-09-20T01:37:52.960Z,11.90
2022-09-20T01:40:31.671Z,11.80
2022-09-20T01:43:09.316Z,11.80
2022-09-20T01:45:39.436Z,11.80
2022-09-20T01:48:19.881Z,11.80
2022-09-20T01:51:07.618Z,11.80
2022-09-20T01:54:17.049Z,11.80
2022-09-20T01:57:11.367Z,11.80
2022-09-20T02:00:06.533Z,11.80
2022-09-20T02:03:22.745Z,11.80
2022-09-20T02:06:29.990Z,11.70
2022-09-20T02:09:26.836Z,11.70
2022-09-20T02:12:10.743Z,11.70
2022-09-20T02:14:48.147Z,11.70
2022-09-20T02:17:23.847Z,11.60
2022-09-20T02:20:02.031Z,11.60
2022-09-20T02:22:59.466Z,11.60
2022-09-20T02:25:59.600Z,11.60
2022-09-20T02:28:38.050Z,11.50
2022-09-20T02:31:16.735Z,11.50
2022-09-20T02:34:17.993Z,11.40
2022-09-20T02:37:02.647Z,11.40
2022-09-20T02:39:39.421Z,11.40
2022-09-20T02:42:17.029Z,11.30
2022-09-20T02:44:59.141Z,11.30
2022-09-20T02:47:34.845Z,11.30
2022-09-20T02:50:14.393Z,11.30
2022-09-20T02:52:50.385Z,11.20
2022-09-20T02:55:25.660Z,11.20
2022-09-20T02:58:01.596Z,11.20
2022-09-20T03:00:35.407Z,11.20
2022-09-20T03:03:12.164Z,11.20
2022-09-20T03:05:54.800Z,11.20
2022-09-20T03:08:35.922Z,11.20
2022-09-20T03:11:16.825Z,11.20
2022-09-20T03:14:03.922Z,11.20
2022-09-20T03:16:45.084Z,11.20
2022-09-20T03:19:25.063Z,11.10
2022-09-20T03:22:03.302Z,11.10
2022-09-20T03:24:44.936Z,11.10
2022-09-20T03:27:23.330Z,11.10
2022-09-20T03:30:06.300Z,11.10
2022-09-20T03:32:47.922Z,11.00
2022-09-20T03:35:25.973Z,11.00
2022-09-20T03:38:09.440Z,11.00
2022-09-20T03:41:08.853Z,11.00
2022-09-20T03:43:55.745Z,10.90
2022-09-20T03:46:27.535Z,10.90
2022-09-20T03:49:27.495Z,10.90
2022-09-20T03:52:05.936Z,10.80
2022-09-20T03:55:04.925Z,10.80
2022-09-20T03:58:03.156Z,10.70
2022-09-20T04:00:47.657Z,10.70
2022-09-20T04:03:38.085Z,10.60
2022-09-20T04:06:32.408Z,10.50
2022-09-20T04:09:27.371Z,10.50
2022-09-20T04:12:02.327Z,10.40
2022-09-20T04:14:39.007Z,10.40
2022-09-20T04:17:30.813Z,10.30
2022-09-20T04:20:04.808Z,10.30
2022-09-20T04:22:32.929Z,10.30
2022-09-20T04:25:06.344Z,10.20
2022-09-20T04:27:40.634Z,10.10
2022-09-20T04:30:19.339Z,10.10
2022-09-20T04:32:55.137Z,10.10
2022-09-20T04:35:51.501Z,10.00
2022-09-20T04:38:21.889Z,9.90
2022-09-20T04:41:10.275Z,9.90
2022-09-20T04:44:03.626Z,9.90
2022-09-20T04:47:08.208Z,9.90
2022-09-20T04:50:10.907Z,9.90
2022-09-20T04:53:21.588Z,9.90
2022-09-20T04:55:56.888Z,9.90
2022-09-20T04:58:38.458Z,9.90
2022-09-20T05:01:47.424Z,9.90
2022-09-20T05:04:47.767Z,10.00
2022-09-20T05:07:36.627Z,10.00
2022-09-20T05:10:33.413Z,10.10
2022-09-20T05:13:22.002Z,10.10
2022-09-20T05:15:58.919Z,10.20
2022-09-20T05:18:50.966Z,10.20
2022-09-20T05:21:42.933Z,10.30
2022-09-20T05:24:24.148Z,10.40
2022-09-20T05:27:06.140Z,10.50
2022-09-20T05:29:43.685Z,10.50
2022-09-20T05:32:20.812Z,10.60
2022-09-20T05:34:55.760Z,10.60
2022-09-20T05:37:36.920Z,10.70
2022-09-20T05:40:14.970Z,10.70
2022-09-20T05:42:51.582Z,10.80
2022-09-20T05:45:35.608Z,10.80
2022-09-20T05:48:11.257Z,10.90
2022-09-20T05:50:47.020Z,10.90
2022-09-20T05:54:02.863Z,11.00
2022-09-20T05:56:49.449Z,11.10
2022-09-20T05:59:31.773Z,11.10
2022-09-20T06:02:13.862Z,11.10
2022-09-20T06:04:50.317Z,11.20
2022-09-20T06:07:26.484Z,11.20
2022-09-20T06:10:26.068Z,11.30
2022-09-20T06:13:00.857Z,11.30
2022-09-20T06:15:37.259Z,11.30
2022-09-20T06:18:22.862Z,11.40
2022-09-20T06:21:02.432Z,11.40
2022-09-20T06:23:32.433Z,11.40
2022-09-20T06:26:07.756Z,11.50
2022-09-20T06:28:41.874Z,11.50
2022-09-20T06:31:11.383Z,11.60
2022-09-20T06:33:44.997Z,11.60
2022-09-20T06:36:35.544Z,11.60
2022-09-20T06:39:30.288Z,11.70
2022-09-20T06:41:58.241Z,11.70
2022-09-20T06:44:27.767Z,11.70
2022-09-20T06:46:55.709Z,11.80
2022-09-20T06:49:24.208Z,11.80
2022-09-20T06:51:52.607Z,11.80
2022-09-20T06:54:23.109Z,11.90
2022-09-20T06:56:52.432Z,11.90
2022-09-20T06:59:20.322Z,11.90
2022-09-20T07:01:49.849Z,11.90
2022-09-20T07:04:17.888Z,11.90
2022-09-20T07:06:45.736Z,12.00
2022-09-20T07:09:13.636Z,12.00
2022-09-20T07:11:41.555Z,12.10
2022-09-20T07:14:09.417Z,12.10
2022-09-20T07:16:37.519Z,12.10
2022-09-20T07:19:06.963Z,12.20
2022-09-20T07:21:34.846Z,12.30
2022-09-20T07:24:03.227Z,12.40
2022-09-20T07:26:32.064Z,12.50
2022-09-20T07:29:01.189Z,12.60
2022-09-20T07:31:30.618Z,12.90
2022-09-20T07:33:58.632Z,13.30
2022-09-20T07:36:29.241Z,13.80
2022-09-20T07:38:57.248Z,14.40
2022-09-20T07:41:25.744Z,14.80
2022-09-20T07:43:53.583Z,15.00
2022-09-20T07:46:22.140Z,15.10
2022-09-20T07:48:50.161Z,15.30
2022-09-20T07:51:18.096Z,15.50
2022-09-20T07:53:47.260Z,15.60
2022-09-20T07:56:18.296Z,15.50
2022-09-20T07:58:49.938Z,15.40
2022-09-20T08:01:21.105Z,15.40
2022-09-20T08:03:49.191Z,15.40
2022-09-20T08:06:18.442Z,15.30
2022-09-20T08:08:47.978Z,15.20
2022-09-20T08:11:17.768Z,15.00
2022-09-20T08:16:40.319Z,14.90
2022-09-20T08:19:08.539Z,14.80
2022-09-20T08:21:38.296Z,14.80
2022-09-20T08:24:08.027Z,14.80
2022-09-20T08:26:37.015Z,14.90
2022-09-20T08:29:06.531Z,14.90
2022-09-20T08:31:37.547Z,14.80
2022-09-20T08:34:06.688Z,14.80
2022-09-20T08:36:37.376Z,14.70
2022-09-20T08:41:59.043Z,14.70
2022-09-20T08:44:34.762Z,14.70
2022-09-20T08:47:07.293Z,14.80
2022-09-20T08:49:35.423Z,14.80
2022-09-20T08:52:10.458Z,15.00
2022-09-20T08:54:40.845Z,15.20
2022-09-20T08:57:15.615Z,15.40
2022-09-20T08:59:43.792Z,15.40
2022-09-20T09:02:17.099Z,15.50
2022-09-20T09:04:45.688Z,15.60
2022-09-20T09:07:15.547Z,15.70
2022-09-20T09:09:46.554Z,15.80
2022-09-20T09:12:22.872Z,15.80
2022-09-20T09:14:54.958Z,15.90
2022-09-20T09:17:28.170Z,16.10
2022-09-20T09:19:57.739Z,16.20
2022-09-20T09:22:32.105Z,16.10
2022-09-20T09:25:25.091Z,16.10
2022-09-20T09:27:58.337Z,16.20
2022-09-20T09:30:29.278Z,16.20
2022-09-20T09:33:19.481Z,16.40
2022-09-20T09:35:55.103Z,16.60
2022-09-20T09:38:25.166Z,16.80
2022-09-20T09:40:56.643Z,17.10
2022-09-20T09:43:29.029Z,17.30
2022-09-20T09:45:57.891Z,17.90
2022-09-20T09:48:31.105Z,18.60
2022-09-20T09:51:11.276Z,19.20
2022-09-20T09:53:40.297Z,19.50
2022-09-20T09:56:41.315Z,19.60
2022-09-20T09:59:21.297Z,19.70
2022-09-20T10:01:59.119Z,19.60
2022-09-20T10:04:36.173Z,19.30
2022-09-20T10:07:10.482Z,19.10
2022-09-20T10:09:55.908Z,18.60
2022-09-20T10:12:40.494Z,18.20
2022-09-20T10:15:25.230Z,17.90
2022-09-20T10:18:01.470Z,17.60
2022-09-20T10:21:05.087Z,17.20
2022-09-20T10:24:04.752Z,16.90
2022-09-20T10:26:48.914Z,16.50
2022-09-20T10:29:30.366Z,16.20
2022-09-20T10:32:15.296Z,15.90
2022-09-20T10:35:08.757Z,15.70
2022-09-20T10:37:49.530Z,15.50
2022-09-20T10:40:49.620Z,15.40
2022-09-20T10:43:28.972Z,15.30
2022-09-20T10:46:30.761Z,15.10
2022-09-20T10:49:07.945Z,15.00
2022-09-20T10:51:47.278Z,14.80
2022-09-20T10:54:29.649Z,14.80
2022-09-20T10:57:12.245Z,15.10
2022-09-20T10:59:48.199Z,15.50
2022-09-20T11:02:36.310Z,15.70
2022-09-20T11:05:30.181Z,15.80
2022-09-20T11:08:06.816Z,16.10
2022-09-20T11:10:38.260Z,16.30
2022-09-20T11:13:14.057Z,16.40
2022-09-20T11:15:49.795Z,16.40
2022-09-20T11:18:24.090Z,16.50
2022-09-20T11:20:59.131Z,16.60
2022-09-20T11:23:34.536Z,16.60
2022-09-20T11:26:10.908Z,16.70
2022-09-20T11:28:42.615Z,17.00
2022-09-20T11:31:18.838Z,17.40
2022-09-20T11:33:53.465Z,17.70
2022-09-20T11:36:26.040Z,18.10
2022-09-20T11:38:58.643Z,18.40
2022-09-20T11:41:28.771Z,18.60
2022-09-20T11:44:00.969Z,19.00
2022-09-20T11:46:32.791Z,19.40
2022-09-20T11:49:04.704Z,19.80
2022-09-20T11:52:00.142Z,20.30
2022-09-20T11:55:13.793Z,20.60
2022-09-20T11:57:41.944Z,20.30
2022-09-20T12:00:11.141Z,20.20
2022-09-20T12:02:45.618Z,20.10
2022-09-20T12:05:27.676Z,20.00
2022-09-20T12:07:59.371Z,19.60
2022-09-20T12:10:30.461Z,19.00
2022-09-20T12:13:00.869Z,18.40
2022-09-20T12:15:32.531Z,18.40
2022-09-20T12:18:27.823Z,17.90
2022-09-20T12:21:17.641Z,17.60
2022-09-20T12:24:18.937Z,17.20
2022-09-20T12:26:49.081Z,17.00
2022-09-20T12:29:57.310Z,16.90
2022-09-20T12:32:50.560Z,16.40
2022-09-20T12:36:01.618Z,16.30
2022-09-20T12:38:49.464Z,16.10
2022-09-20T12:41:28.186Z,16.00
2022-09-20T12:44:06.537Z,16.30
2022-09-20T12:46:43.456Z,16.80
2022-09-20T12:49:37.262Z,17.00
2022-09-20T12:52:23.120Z,17.10
2022-09-20T12:54:58.138Z,17.30
2022-09-20T12:57:33.094Z,17.60
2022-09-20T13:00:04.001Z,18.10
2022-09-20T13:02:58.848Z,18.80
2022-09-20T13:05:38.040Z,19.40
2022-09-20T13:08:20.311Z,19.70
2022-09-20T13:10:58.021Z,19.50
2022-09-20T13:13:33.031Z,19.30
2022-09-20T13:16:05.475Z,19.10
2022-09-20T13:18:36.150Z,18.90
2022-09-20T13:21:07.626Z,18.80
2022-09-20T13:23:46.428Z,18.80
2022-09-20T13:26:16.557Z,18.70
2022-09-20T13:28:50.020Z,18.50
2022-09-20T13:31:33.765Z,18.40
2022-09-20T13:34:15.616Z,18.10
2022-09-20T13:36:44.509Z,17.80
2022-09-20T13:39:26.773Z,17.60
2022-09-20T13:42:02.248Z,17.00
2022-09-20T13:44:34.368Z,16.50
2022-09-20T13:47:02.551Z,16.20
2022-09-20T13:49:33.401Z,16.10
2022-09-20T13:52:21.336Z,16.00
2022-09-20T13:54:49.245Z,15.90
2022-09-20T13:57:23.442Z,15.90
2022-09-20T13:59:53.543Z,15.90
2022-09-20T14:02:24.963Z,15.90
2022-09-20T14:04:56.033Z,15.90
2022-09-20T14:07:28.015Z,15.90
2022-09-20T14:09:56.803Z,15.90
2022-09-20T14:12:28.038Z,16.00
2022-09-20T14:14:56.819Z,16.10
2022-09-20T14:17:25.660Z,16.20
2022-09-20T14:19:55.536Z,16.20
2022-09-20T14:22:27.058Z,16.30
2022-09-20T14:25:01.300Z,16.30
2022-09-20T14:27:31.505Z,16.30
2022-09-20T14:29:59.670Z,16.30
2022-09-20T14:32:43.057Z,16.40
2022-09-20T14:35:17.785Z,16.50
2022-09-20T14:37:47.769Z,16.50
2022-09-20T14:40:21.029Z,16.60
2022-09-20T14:42:53.972Z,16.70
2022-09-20T14:45:28.165Z,16.80
2022-09-20T14:47:59.149Z,16.70
2022-09-20T14:50:30.179Z,16.80
2022-09-20T14:53:21.425Z,16.80
2022-09-20T14:56:10.586Z,16.70
2022-09-20T14:59:20.344Z,16.60
2022-09-20T15:01:58.627Z,16.60
2022-09-20T15:04:28.173Z,16.60
2022-09-20T15:06:57.027Z,16.60
2022-09-20T15:09:25.100Z,16.50
2022-09-20T15:12:07.245Z,16.50
2022-09-20T15:14:38.098Z,16.50
2022-09-20T15:17:06.524Z,16.40
2022-09-20T15:19:34.519Z,16.40
2022-09-20T15:22:02.535Z,16.40
2022-09-20T15:24:30.415Z,16.40
2022-09-20T15:26:58.276Z,16.40
2022-09-20T15:29:26.133Z,16.40
2022-09-20T15:31:55.651Z,16.30
2022-09-20T15:34:23.741Z,16.30
2022-09-20T15:36:51.704Z,16.30
2022-09-20T15:39:21.028Z,16.30
2022-09-20T15:41:48.910Z,16.30
2022-09-20T15:44:17.531Z,16.20
2022-09-20T15:46:45.332Z,16.20
2022-09-20T15:49:14.788Z,16.20
2022-09-20T15:51:42.742Z,16.10
2022-09-20T15:54:14.986Z,16.10
2022-09-20T15:56:43.111Z,16.10
2022-09-20T15:59:13.298Z,16.10
2022-09-20T16:01:43.254Z,16.00
2022-09-20T16:04:12.706Z,16.00
2022-09-20T16:06:44.217Z,16.00
2022-09-20T16:09:12.394Z,15.90
2022-09-20T16:11:40.860Z,15.80
2022-09-20T16:14:08.899Z,15.80
2022-09-20T16:16:40.393Z,15.80
2022-09-20T16:19:17.933Z,15.70
2022-09-20T16:21:53.608Z,15.70
2022-09-20T16:24:25.609Z,15.70
2022-09-20T16:26:53.922Z,15.60
2022-09-20T16:29:23.426Z,15.60
2022-09-20T16:31:52.222Z,15.60
2022-09-20T16:34:21.893Z,15.50
2022-09-20T16:36:53.791Z,15.40
2022-09-20T16:39:27.534Z,15.30
2022-09-20T16:41:57.739Z,15.20
2022-09-20T16:44:25.631Z,15.10
2022-09-20T16:46:53.501Z,15.10
2022-09-20T16:49:21.452Z,15.00
2022-09-20T16:51:50.881Z,15.00
2022-09-20T16:54:19.383Z,15.00
2022-09-20T16:56:49.462Z,15.00
2022-09-20T16:59:18.738Z,14.90
2022-09-20T17:01:46.908Z,14.90
2022-09-20T17:04:17.500Z,14.90
2022-09-20T17:06:46.257Z,14.80
2022-09-20T17:09:16.769Z,14.80
2022-09-20T17:11:47.063Z,14.80
2022-09-20T17:14:16.394Z,14.70
2022-09-20T17:16:47.479Z,14.70
2022-09-20T17:19:18.284Z,14.60
2022-09-20T17:21:49.893Z,14.60
2022-09-20T17:24:20.364Z,14.50
2022-09-20T17:26:48.814Z,14.40
2022-09-20T17:29:17.781Z,14.30
2022-09-20T17:31:51.517Z,14.30
2022-09-20T17:34:22.600Z,14.20
2022-09-20T17:36:50.899Z,14.10
2022-09-20T17:39:21.603Z,14.10
2022-09-20T17:41:50.602Z,13.90
2022-09-20T17:44:18.750Z,13.90
2022-09-20T17:46:48.295Z,13.80
2022-09-20T17:49:18.087Z,13.70
2022-09-20T17:51:47.775Z,13.60
2022-09-20T17:54:16.197Z,13.50
2022-09-20T17:56:46.999Z,13.40
2022-09-20T17:59:16.506Z,13.30
2022-09-20T18:01:45.743Z,13.30
2022-09-20T18:04:14.361Z,13.20
2022-09-20T18:06:45.402Z,13.10
2022-09-20T18:09:15.880Z,13.10
2022-09-20T18:11:48.667Z,13.00
2022-09-20T18:14:17.813Z,12.90
2022-09-20T18:16:46.531Z,12.90
2022-09-20T18:19:15.875Z,12.90
2022-09-20T18:21:43.969Z,12.90
2022-09-20T18:24:12.893Z,12.90
2022-09-20T18:26:42.054Z,12.90
2022-09-20T18:29:13.454Z,13.00
2022-09-20T18:31:44.608Z,13.00
2022-09-20T18:34:17.621Z,13.00
2022-09-20T18:36:48.367Z,13.00
2022-09-20T18:39:16.270Z,12.90
2022-09-20T18:41:44.721Z,12.90
2022-09-20T18:44:14.876Z,12.90
2022-09-20T18:46:43.105Z,12.90
2022-09-20T18:49:13.407Z,12.80
2022-09-20T18:51:42.089Z,12.90
2022-09-20T18:54:10.994Z,12.80
2022-09-20T18:56:40.331Z,12.80
2022-09-20T18:59:14.008Z,12.80
2022-09-20T19:01:58.140Z,12.80
2022-09-20T19:04:49.252Z,12.80
2022-09-20T19:07:23.912Z,12.80
2022-09-20T19:09:58.042Z,12.80
2022-09-20T19:12:34.006Z,12.80
2022-09-20T19:15:21.528Z,12.80
2022-09-20T19:18:03.749Z,12.90
2022-09-20T19:20:36.075Z,12.90
2022-09-20T19:23:25.296Z,12.90
2022-09-20T19:26:02.977Z,12.80
2022-09-20T19:28:31.333Z,12.80
2022-09-20T19:30:59.809Z,12.80
2022-09-20T19:33:29.887Z,12.70
2022-09-20T19:35:59.682Z,12.70
2022-09-20T19:38:35.389Z,12.60
2022-09-20T19:41:15.995Z,12.60
2022-09-20T19:43:55.495Z,12.50
2022-09-20T19:46:43.046Z,12.50
2022-09-20T19:49:15.964Z,12.40
2022-09-20T19:51:45.447Z,12.40
2022-09-20T19:54:15.199Z,12.40
2022-09-20T19:57:00.362Z,12.40
2022-09-20T19:59:29.367Z,12.40
2022-09-20T20:01:58.175Z,12.40
2022-09-20T20:04:28.325Z,12.40
2022-09-20T20:07:04.102Z,12.40
2022-09-20T20:09:41.058Z,12.40
2022-09-20T20:12:15.523Z,12.30
2022-09-20T20:14:54.925Z,12.30
2022-09-20T20:17:45.011Z,12.30
2022-09-20T20:20:24.048Z,12.30
2022-09-20T20:23:24.832Z,12.20
2022-09-20T20:26:00.118Z,12.10
2022-09-20T20:28:28.078Z,12.00
2022-09-20T20:30:59.753Z,11.90
2022-09-20T20:33:29.656Z,11.70
2022-09-20T20:36:00.575Z,11.60
2022-09-20T20:38:30.019Z,11.50
2022-09-20T20:41:04.532Z,11.50
2022-09-20T20:43:32.673Z,11.40
2022-09-20T20:46:00.883Z,11.30
2022-09-20T20:48:28.776Z,11.30
2022-09-20T20:51:05.938Z,11.20
2022-09-20T20:53:34.882Z,11.10
2022-09-20T20:56:04.297Z,11.10
2022-09-20T20:58:33.530Z,11.00
2022-09-20T21:01:10.482Z,10.90
2022-09-20T21:03:38.465Z,10.90
2022-09-20T21:06:08.737Z,10.80
2022-09-20T21:08:38.377Z,10.70
2022-09-20T21:11:08.543Z,10.70
2022-09-20T21:13:36.773Z,10.70
2022-09-20T21:16:06.957Z,10.60
2022-09-20T21:18:35.599Z,10.60
2022-09-20T21:21:04.334Z,10.60
2022-09-20T21:23:36.240Z,10.60
2022-09-20T21:26:08.377Z,10.50
2022-09-20T21:28:37.842Z,10.40
2022-09-20T21:31:06.501Z,10.40
2022-09-20T21:33:35.480Z,10.30
2022-09-20T21:36:04.838Z,10.30
2022-09-20T21:38:34.414Z,10.30
2022-09-20T21:41:05.570Z,10.30
2022-09-20T21:43:33.761Z,10.30
2022-09-20T21:46:02.179Z,10.30
2022-09-20T21:48:30.520Z,10.30
2022-09-20T21:51:03.089Z,10.30
2022-09-20T21:53:30.961Z,10.30
2022-09-20T21:55:59.424Z,10.30
2022-09-20T21:58:29.098Z,10.30
2022-09-20T22:00:58.592Z,10.30
2022-09-20T22:03:26.453Z,10.20
2022-09-20T22:05:54.340Z,10.20
2022-09-20T22:08:22.162Z,10.10
2022-09-20T22:10:57.684Z,10.10
2022-09-20T22:13:25.702Z,10.10
2022-09-20T22:15:54.974Z,10.10
2022-09-20T22:18:22.908Z,10.10
2022-09-20T22:21:03.298Z,10.00
2022-09-20T22:23:31.102Z,10.00
2022-09-20T22:26:02.674Z,9.90
2022-09-20T22:28:30.856Z,9.90
2022-09-20T22:31:06.376Z,9.90
2022-09-20T22:33:34.672Z,9.90
2022-09-20T22:36:02.988Z,9.80
2022-09-20T22:38:32.043Z,9.80
2022-09-20T22:41:00.636Z,9.70
2022-09-20T22:43:29.185Z,9.60
2022-09-20T22:46:05.296Z,9.40
2022-09-20T22:48:33.768Z,9.30
2022-09-20T22:51:01.976Z,9.20
2022-09-20T22:53:31.486Z,9.10
2022-09-20T22:56:10.342Z,9.00
2022-09-20T22:58:40.823Z,8.90
2022-09-20T23:01:12.256Z,8.90
2022-09-20T23:03:41.270Z,8.90
2022-09-20T23:06:16.539Z,8.90
2022-09-20T23:08:44.416Z,8.80
2022-09-20T23:11:12.372Z,8.80
2022-09-20T23:13:40.304Z,8.80
2022-09-20T23:16:13.973Z,8.80
2022-09-20T23:18:42.195Z,8.80
2022-09-20T23:21:10.236Z,8.70
2022-09-20T23:23:38.441Z,8.70
2022-09-20T23:26:08.469Z,8.60
2022-09-20T23:28:37.575Z,8.60
2022-09-20T23:31:07.424Z,8.50
2022-09-20T23:33:36.744Z,8.40
2022-09-20T23:36:08.798Z,8.40
2022-09-20T23:38:37.177Z,8.30
2022-09-20T23:41:05.643Z,8.30
2022-09-20T23:43:33.625Z,8.20
2022-09-20T23:46:01.881Z,8.20
2022-09-20T23:48:30.175Z,8.10
2022-09-20T23:50:59.728Z,8.10
2022-09-20T23:53:27.609Z,8.00
2022-09-20T23:55:55.478Z,8.00
2022-09-20T23:58:23.361Z,8.00
